Time;durP1;ratioP1;P1;durP2;ratioP2;P2;SDS_P1;SDS_P2;PMS_P1;PMS_P2;Temp;Humidity;BMP_temperature;BMP_pressure;BME280_temperature;BME280_humidity;BME280_pressure;Samples;Min_cycle;Max_cycle;Signal;HPM_P1;HPM_P2
2022/08/04 00:00:44;;;;;;;2.67;2.15;;;;;;;;;;5059881;28;20220;-64
2022/08/04 00:03:12;;;;;;;3.55;2.00;;;;;;;;;;5061784;28;20210;-64
2022/08/04 00:05:42;;;;;;;2.72;2.00;;;;;;;;;;5062772;28;20208;-66
2022/08/04 00:08:09;;;;;;;2.80;2.08;;;;;;;;;;5069347;28;20233;-64
2022/08/04 00:10:39;;;;;;;3.60;2.20;;;;;;;;;;5063788;28;20224;-65
2022/08/04 00:13:07;;;;;;;4.00;2.28;;;;;;;;;;5069691;28;20243;-66
2022/08/04 00:15:35;;;;;;;2.20;2.00;;;;;;;;;;5068540;28;20205;-66
2022/08/04 00:18:07;;;;;;;2.40;2.20;;;;;;;;;;5048648;28;20221;-65
2022/08/04 00:20:39;;;;;;;2.22;2.03;;;;;;;;;;5066855;28;20258;-68
2022/08/04 00:23:08;;;;;;;1.92;1.80;;;;;;;;;;5063179;28;20328;-66
2022/08/04 00:25:43;;;;;;;1.90;1.80;;;;;;;;;;5064154;28;20209;-68
2022/08/04 00:28:11;;;;;;;2.55;2.13;;;;;;;;;;5061425;28;20678;-65
2022/08/04 00:30:41;;;;;;;2.22;2.05;;;;;;;;;;5061486;28;20208;-66
2022/08/04 00:33:09;;;;;;;4.03;2.00;;;;;;;;;;5070501;28;20204;-66
2022/08/04 00:35:37;;;;;;;4.53;2.20;;;;;;;;;;5048860;28;20927;-68
2022/08/04 00:38:05;;;;;;;5.03;2.30;;;;;;;;;;5065474;28;20221;-66
2022/08/04 00:40:44;;;;;;;2.13;2.03;;;;;;;;;;5064128;28;20213;-67
2022/08/04 00:43:17;;;;;;;2.30;2.10;;;;;;;;;;5040933;28;20678;-66
2022/08/04 00:45:47;;;;;;;2.40;2.30;;;;;;;;;;5068981;28;20214;-64
2022/08/04 00:48:54;;;;;;;2.03;1.90;;;;;;;;;;5074452;28;20630;-65
2022/08/04 00:51:25;;;;;;;3.65;2.03;;;;;;;;;;5064880;28;20196;-65
2022/08/04 00:54:02;;;;;;;2.83;2.40;;;;;;;;;;5071010;28;20201;-64
2022/08/04 00:56:35;;;;;;;2.83;1.80;;;;;;;;;;5053649;28;20198;-65
2022/08/04 00:59:08;;;;;;;2.35;2.15;;;;;;;;;;5042505;28;21503;-65
2022/08/04 01:01:54;;;;;;;2.95;2.03;;;;;;;;;;5065809;28;20192;-63
2022/08/04 01:04:45;;;;;;;3.25;2.10;;;;;;;;;;5061056;28;20683;-65
2022/08/04 01:07:45;;;;;;;1.92;1.83;;;;;;;;;;5061742;28;20226;-63
2022/08/04 01:10:20;;;;;;;2.33;2.10;;;;;;;;;;5025468;28;20334;-65
2022/08/04 01:13:00;;;;;;;1.90;1.80;;;;;;;;;;5057993;28;20793;-63
2022/08/04 01:15:45;;;;;;;2.90;1.80;;;;;;;;;;5074098;28;20206;-66
2022/08/04 01:18:29;;;;;;;1.80;1.70;;;;;;;;;;5053885;28;20240;-65
2022/08/04 01:20:57;;;;;;;2.85;2.00;;;;;;;;;;5049120;28;20209;-65
2022/08/04 01:23:24;;;;;;;2.00;1.80;;;;;;;;;;5074664;28;20209;-66
2022/08/04 01:26:10;;;;;;;2.30;2.10;;;;;;;;;;5061001;28;20967;-66
2022/08/04 01:29:05;;;;;;;2.10;1.90;;;;;;;;;;5040397;28;20271;-65
2022/08/04 01:31:50;;;;;;;3.55;1.88;;;;;;;;;;5045851;28;20700;-65
2022/08/04 01:34:19;;;;;;;3.60;2.15;;;;;;;;;;5077722;28;20570;-67
2022/08/04 01:36:51;;;;;;;2.00;1.90;;;;;;;;;;5056910;28;20624;-63
2022/08/04 01:42:06;;;;;;;2.05;1.85;;;;;;;;;;5060693;28;20693;-68
2022/08/04 01:44:36;;;;;;;2.10;2.00;;;;;;;;;;5076669;28;20227;-65
2022/08/04 01:47:04;;;;;;;2.25;2.03;;;;;;;;;;5063064;28;20210;-65
2022/08/04 01:49:32;;;;;;;2.08;1.98;;;;;;;;;;5064210;28;20563;-65
2022/08/04 01:52:08;;;;;;;6.40;2.30;;;;;;;;;;5064816;28;20240;-66
2022/08/04 01:54:36;;;;;;;2.22;2.10;;;;;;;;;;5062822;28;20204;-65
2022/08/04 01:57:05;;;;;;;3.72;2.10;;;;;;;;;;5059873;28;20245;-64
2022/08/04 01:59:53;;;;;;;3.67;2.40;;;;;;;;;;5067129;28;20198;-64
2022/08/04 02:02:23;;;;;;;2.50;2.30;;;;;;;;;;5064255;28;20713;-65
2022/08/04 02:04:51;;;;;;;3.67;2.20;;;;;;;;;;5059967;28;20217;-65
2022/08/04 02:07:24;;;;;;;3.22;2.20;;;;;;;;;;5054700;28;20290;-65
2022/08/04 02:10:08;;;;;;;2.72;2.28;;;;;;;;;;5060426;28;20271;-68
2022/08/04 02:12:53;;;;;;;2.58;2.30;;;;;;;;;;5073663;28;20621;-65
2022/08/04 02:15:30;;;;;;;4.10;2.47;;;;;;;;;;5076180;28;20615;-65
2022/08/04 02:18:24;;;;;;;4.25;2.55;;;;;;;;;;5047103;28;20574;-64
2022/08/04 02:20:57;;;;;;;2.55;2.35;;;;;;;;;;5039247;28;20223;-65
2022/08/04 02:23:27;;;;;;;3.67;2.35;;;;;;;;;;5062058;28;20235;-66
2022/08/04 02:26:00;;;;;;;4.47;2.55;;;;;;;;;;5073376;28;20259;-65
2022/08/04 02:28:57;;;;;;;2.75;2.53;;;;;;;;;;5062896;28;20314;-67
2022/08/04 02:31:32;;;;;;;4.05;2.70;;;;;;;;;;5045079;28;20214;-65
2022/08/04 02:34:08;;;;;;;4.80;2.95;;;;;;;;;;5069550;28;20259;-64
2022/08/04 02:36:36;;;;;;;3.00;2.70;;;;;;;;;;5071027;28;20197;-66
2022/08/04 02:39:05;;;;;;;4.40;2.67;;;;;;;;;;5073597;28;21417;-65
2022/08/04 02:41:33;;;;;;;3.78;2.53;;;;;;;;;;5058589;28;20197;-62
2022/08/04 02:44:01;;;;;;;2.90;2.60;;;;;;;;;;5062211;28;20329;-68
2022/08/04 02:46:29;;;;;;;3.72;2.90;;;;;;;;;;5049416;28;20829;-69
2022/08/04 02:48:57;;;;;;;2.72;2.42;;;;;;;;;;5053790;28;20237;-64
2022/08/04 02:51:27;;;;;;;2.83;2.63;;;;;;;;;;5056157;28;20195;-66
2022/08/04 02:53:56;;;;;;;2.92;2.72;;;;;;;;;;5056712;28;20201;-65
2022/08/04 02:56:24;;;;;;;3.17;2.97;;;;;;;;;;5061186;28;20212;-65
2022/08/04 02:58:53;;;;;;;3.25;2.60;;;;;;;;;;5061288;28;20226;-64
2022/08/04 03:01:22;;;;;;;3.17;2.50;;;;;;;;;;5051938;28;20267;-67
2022/08/04 03:04:00;;;;;;;3.05;2.67;;;;;;;;;;5046212;28;20233;-67
2022/08/04 03:06:47;;;;;;;4.20;2.30;;;;;;;;;;5059102;28;20220;-64
2022/08/04 03:09:27;;;;;;;2.40;2.20;;;;;;;;;;5033840;28;20294;-65
2022/08/04 03:12:33;;;;;;;3.03;2.72;;;;;;;;;;5065220;28;20246;-68
2022/08/04 03:15:12;;;;;;;4.10;3.03;;;;;;;;;;5040913;28;20853;-64
2022/08/04 03:17:43;;;;;;;3.20;2.70;;;;;;;;;;5070411;28;20291;-68
2022/08/04 03:20:34;;;;;;;2.58;2.38;;;;;;;;;;5055439;28;20238;-67
2022/08/04 03:23:14;;;;;;;3.13;2.45;;;;;;;;;;5043962;28;20921;-66
2022/08/04 03:25:41;;;;;;;2.40;2.22;;;;;;;;;;5035599;28;20217;-63
2022/08/04 03:28:42;;;;;;;3.05;2.10;;;;;;;;;;5040849;28;20650;-63
2022/08/04 03:31:16;;;;;;;3.58;2.33;;;;;;;;;;5062526;28;20260;-64
2022/08/04 03:33:55;;;;;;;2.35;2.10;;;;;;;;;;5062084;28;20225;-67
2022/08/04 03:36:23;;;;;;;2.70;2.50;;;;;;;;;;5060489;28;20676;-63
2022/08/04 03:39:07;;;;;;;2.55;2.35;;;;;;;;;;5040881;28;20228;-67
2022/08/04 03:41:52;;;;;;;2.50;2.30;;;;;;;;;;5073236;28;20300;-63
2022/08/04 03:44:36;;;;;;;3.10;2.13;;;;;;;;;;5052227;28;20847;-66
2022/08/04 03:47:24;;;;;;;3.55;2.55;;;;;;;;;;5051469;28;20213;-66
2022/08/04 03:49:52;;;;;;;2.10;1.92;;;;;;;;;;5064330;28;20233;-64
2022/08/04 03:55:24;;;;;;;1.90;1.80;;;;;;;;;;5049232;28;20247;-66
2022/08/04 03:58:02;;;;;;;2.35;2.15;;;;;;;;;;5050010;28;20213;-68
2022/08/04 04:00:34;;;;;;;2.75;1.98;;;;;;;;;;5074594;28;20219;-67
2022/08/04 04:03:21;;;;;;;2.58;2.38;;;;;;;;;;5061167;28;20204;-65
2022/08/04 04:06:14;;;;;;;2.53;2.30;;;;;;;;;;5063671;28;20210;-64
2022/08/04 04:08:41;;;;;;;2.10;1.90;;;;;;;;;;5058934;28;20356;-66
2022/08/04 04:11:20;;;;;;;2.10;1.90;;;;;;;;;;5058053;28;20695;-67
2022/08/04 04:13:50;;;;;;;2.60;2.40;;;;;;;;;;5047480;28;20209;-68
2022/08/04 04:16:18;;;;;;;2.28;2.17;;;;;;;;;;5055968;28;20214;-64
2022/08/04 04:19:21;;;;;;;2.40;2.20;;;;;;;;;;5059089;28;20279;-67
2022/08/04 04:21:51;;;;;;;3.05;2.25;;;;;;;;;;5007175;28;20208;-64
2022/08/04 04:24:34;;;;;;;2.30;2.10;;;;;;;;;;5043451;28;20224;-66
2022/08/04 04:27:16;;;;;;;4.25;2.20;;;;;;;;;;5052623;28;20213;-65
2022/08/04 04:29:44;;;;;;;2.22;2.13;;;;;;;;;;5068718;28;20301;-68
2022/08/04 04:32:18;;;;;;;2.08;1.98;;;;;;;;;;5066386;28;20206;-65
2022/08/04 04:34:48;;;;;;;2.20;2.10;;;;;;;;;;5047846;28;20202;-65
2022/08/04 04:37:15;;;;;;;2.25;1.92;;;;;;;;;;5064974;28;20252;-65
2022/08/04 04:39:43;;;;;;;3.00;2.10;;;;;;;;;;5060316;28;20206;-64
2022/08/04 04:42:32;;;;;;;3.28;2.20;;;;;;;;;;5066468;28;20208;-66
2022/08/04 04:45:03;;;;;;;2.22;2.10;;;;;;;;;;5049448;28;20214;-64
2022/08/04 04:47:41;;;;;;;2.33;2.17;;;;;;;;;;5063645;28;20256;-64
2022/08/04 04:50:47;;;;;;;2.80;2.50;;;;;;;;;;5061730;28;20222;-67
2022/08/04 04:53:27;;;;;;;3.38;2.50;;;;;;;;;;5060330;28;20599;-68
2022/08/04 04:56:13;;;;;;;3.05;2.22;;;;;;;;;;5058634;28;20217;-67
2022/08/04 04:58:42;;;;;;;2.70;2.13;;;;;;;;;;5065273;28;20278;-68
2022/08/04 05:01:22;;;;;;;3.33;2.40;;;;;;;;;;5064109;28;20217;-69
2022/08/04 05:04:01;;;;;;;3.38;2.15;;;;;;;;;;5041942;28;20209;-69
2022/08/04 05:06:32;;;;;;;2.30;2.10;;;;;;;;;;5061248;28;20254;-68
2022/08/04 05:09:22;;;;;;;3.33;2.83;;;;;;;;;;5047686;28;20225;-66
2022/08/04 05:12:00;;;;;;;3.45;2.90;;;;;;;;;;5032782;28;20627;-68
2022/08/04 05:14:34;;;;;;;2.50;2.30;;;;;;;;;;5064265;28;20259;-67
2022/08/04 05:17:40;;;;;;;2.60;2.40;;;;;;;;;;5038528;28;20202;-67
2022/08/04 05:20:09;;;;;;;2.72;2.00;;;;;;;;;;5002892;28;20202;-69
2022/08/04 05:23:03;;;;;;;2.80;2.17;;;;;;;;;;5055228;28;20236;-68
2022/08/04 05:25:38;;;;;;;2.08;1.98;;;;;;;;;;5072028;28;20232;-66
2022/08/04 05:28:14;;;;;;;3.70;2.03;;;;;;;;;;5063489;28;20274;-66
2022/08/04 05:30:48;;;;;;;2.13;1.90;;;;;;;;;;5061572;28;20240;-67
2022/08/04 05:33:39;;;;;;;1.92;1.77;;;;;;;;;;5074597;28;20206;-66
2022/08/04 05:36:17;;;;;;;1.90;1.80;;;;;;;;;;5052649;28;20247;-67
2022/08/04 05:39:06;;;;;;;1.95;1.83;;;;;;;;;;5070770;28;20349;-67
2022/08/04 05:41:35;;;;;;;1.80;1.70;;;;;;;;;;5045139;28;20224;-66
2022/08/04 05:44:16;;;;;;;2.25;2.05;;;;;;;;;;5051744;28;20222;-66
2022/08/04 05:46:46;;;;;;;2.45;1.50;;;;;;;;;;5040103;28;20237;-67
2022/08/04 05:49:22;;;;;;;1.70;1.60;;;;;;;;;;5048677;28;20242;-66
2022/08/04 05:51:50;;;;;;;1.98;1.33;;;;;;;;;;5048598;28;20243;-66
2022/08/04 05:54:19;;;;;;;1.10;1.10;;;;;;;;;;5059665;28;20200;-68
2022/08/04 05:56:48;;;;;;;2.40;1.50;;;;;;;;;;5058205;28;20571;-66
2022/08/04 05:59:18;;;;;;;1.60;1.50;;;;;;;;;;5061295;28;20978;-66
2022/08/04 06:01:45;;;;;;;1.50;1.30;;;;;;;;;;5062037;28;20209;-69
2022/08/04 06:04:24;;;;;;;1.73;1.58;;;;;;;;;;5067757;28;20204;-67
2022/08/04 06:06:52;;;;;;;1.38;1.30;;;;;;;;;;5046021;28;20208;-66
2022/08/04 06:09:19;;;;;;;1.50;1.40;;;;;;;;;;5070667;28;20223;-68
2022/08/04 06:11:47;;;;;;;1.40;1.30;;;;;;;;;;5067974;28;20224;-66
2022/08/04 06:14:35;;;;;;;2.00;1.50;;;;;;;;;;5054819;28;20278;-64
2022/08/04 06:17:04;;;;;;;4.05;1.50;;;;;;;;;;5048121;28;20197;-65
2022/08/04 06:19:52;;;;;;;2.50;1.60;;;;;;;;;;5064548;28;20263;-66
2022/08/04 06:22:41;;;;;;;2.13;1.40;;;;;;;;;;5042917;28;20289;-64
2022/08/04 06:25:10;;;;;;;2.25;1.50;;;;;;;;;;5049887;28;20201;-64
2022/08/04 06:27:39;;;;;;;1.88;1.60;;;;;;;;;;5062796;28;20233;-66
2022/08/04 06:30:10;;;;;;;2.55;1.80;;;;;;;;;;5051609;28;20236;-66
2022/08/04 06:32:46;;;;;;;2.85;1.67;;;;;;;;;;5048443;28;20634;-66
2022/08/04 06:35:17;;;;;;;1.70;1.60;;;;;;;;;;5068981;28;20266;-65
2022/08/04 06:37:45;;;;;;;1.70;1.58;;;;;;;;;;5060373;28;20719;-67
2022/08/04 06:40:14;;;;;;;2.17;1.50;;;;;;;;;;5046956;28;20219;-64
2022/08/04 06:42:59;;;;;;;2.88;1.83;;;;;;;;;;5046228;28;20210;-64
2022/08/04 06:45:27;;;;;;;2.97;1.40;;;;;;;;;;5048161;28;20224;-63
2022/08/04 06:47:54;;;;;;;1.70;1.60;;;;;;;;;;5054202;28;20225;-65
2022/08/04 06:50:22;;;;;;;1.80;1.70;;;;;;;;;;5046077;28;20240;-65
2022/08/04 06:53:09;;;;;;;3.08;1.65;;;;;;;;;;5063826;28;20214;-65
2022/08/04 06:55:37;;;;;;;1.83;1.73;;;;;;;;;;5045346;28;20205;-69
2022/08/04 06:58:05;;;;;;;3.08;1.70;;;;;;;;;;5059218;28;20596;-64
2022/08/04 07:00:35;;;;;;;2.00;1.65;;;;;;;;;;5054246;28;20920;-65
2022/08/04 07:03:03;;;;;;;3.90;1.67;;;;;;;;;;5073949;28;20213;-66
2022/08/04 07:05:30;;;;;;;4.53;1.90;;;;;;;;;;5057845;28;20232;-68
2022/08/04 07:07:58;;;;;;;2.25;1.90;;;;;;;;;;5045029;28;20469;-65
2022/08/04 07:10:29;;;;;;;4.10;1.70;;;;;;;;;;5054991;28;20233;-65
2022/08/04 07:12:57;;;;;;;4.15;1.60;;;;;;;;;;5057214;28;20703;-68
2022/08/04 07:15:25;;;;;;;1.77;1.67;;;;;;;;;;5059930;28;20733;-66
2022/08/04 07:17:55;;;;;;;1.70;1.60;;;;;;;;;;5047449;28;20225;-69
2022/08/04 07:20:23;;;;;;;1.77;1.67;;;;;;;;;;5048722;28;20200;-65
2022/08/04 07:23:02;;;;;;;2.72;1.50;;;;;;;;;;5056274;28;20236;-69
2022/08/04 07:25:30;;;;;;;2.38;1.60;;;;;;;;;;5065948;28;20202;-65
2022/08/04 07:28:18;;;;;;;1.90;1.80;;;;;;;;;;5045437;28;20240;-66
2022/08/04 07:30:47;;;;;;;2.17;1.67;;;;;;;;;;5065605;28;20244;-68
2022/08/04 07:33:15;;;;;;;2.38;1.80;;;;;;;;;;5047269;28;20675;-65
2022/08/04 07:35:43;;;;;;;1.77;1.50;;;;;;;;;;5069170;28;20204;-65
2022/08/04 07:38:31;;;;;;;1.70;1.60;;;;;;;;;;5066965;28;20575;-65
2022/08/04 07:40:58;;;;;;;1.90;1.65;;;;;;;;;;5064771;28;20204;-67
2022/08/04 07:43:26;;;;;;;1.60;1.50;;;;;;;;;;5044291;28;20209;-65
2022/08/04 07:45:53;;;;;;;1.50;1.40;;;;;;;;;;5043188;28;20218;-66
2022/08/04 07:48:23;;;;;;;2.85;1.60;;;;;;;;;;5040529;28;20245;-66
2022/08/04 07:50:51;;;;;;;1.50;1.40;;;;;;;;;;5064076;28;20229;-65
2022/08/04 07:53:20;;;;;;;4.45;1.70;;;;;;;;;;5059387;28;20209;-67
2022/08/04 07:56:08;;;;;;;3.05;1.63;;;;;;;;;;5066577;28;20198;-65
2022/08/04 07:58:35;;;;;;;2.15;1.60;;;;;;;;;;5071636;28;20221;-65
2022/08/04 08:01:03;;;;;;;3.15;1.70;;;;;;;;;;5045586;28;20278;-66
2022/08/04 08:03:30;;;;;;;1.70;1.60;;;;;;;;;;5070109;28;20217;-65
2022/08/04 08:05:57;;;;;;;1.30;1.20;;;;;;;;;;5044016;28;20216;-66
2022/08/04 08:08:45;;;;;;;4.53;1.85;;;;;;;;;;5057728;28;20253;-68
2022/08/04 08:11:12;;;;;;;2.30;1.40;;;;;;;;;;5056847;28;20402;-66
2022/08/04 08:13:40;;;;;;;2.25;1.58;;;;;;;;;;5064497;28;20280;-67
2022/08/04 08:16:07;;;;;;;1.90;1.60;;;;;;;;;;5048679;28;20200;-65
2022/08/04 08:18:35;;;;;;;3.03;1.80;;;;;;;;;;5056695;28;20626;-64
2022/08/04 08:21:03;;;;;;;2.30;1.88;;;;;;;;;;5050442;28;20236;-65
2022/08/04 08:23:31;;;;;;;2.83;1.65;;;;;;;;;;5053348;28;20205;-66
2022/08/04 08:25:59;;;;;;;1.70;1.58;;;;;;;;;;5046850;28;20202;-67
2022/08/04 08:28:26;;;;;;;2.35;1.85;;;;;;;;;;5056862;28;20232;-64
2022/08/04 08:30:54;;;;;;;1.90;1.80;;;;;;;;;;5052161;28;20228;-64
2022/08/04 08:33:25;;;;;;;1.58;1.50;;;;;;;;;;5066273;28;20205;-65
2022/08/04 08:35:58;;;;;;;2.90;1.80;;;;;;;;;;5062462;28;20208;-66
2022/08/04 08:38:44;;;;;;;3.03;2.08;;;;;;;;;;5070139;28;20266;-65
2022/08/04 08:41:30;;;;;;;3.00;1.85;;;;;;;;;;5068885;28;20212;-66
2022/08/04 08:44:04;;;;;;;2.13;2.00;;;;;;;;;;5070820;28;20209;-65
2022/08/04 08:47:00;;;;;;;2.72;2.15;;;;;;;;;;5048131;28;20249;-65
2022/08/04 08:49:59;;;;;;;2.10;1.90;;;;;;;;;;5071018;28;20260;-67
2022/08/04 08:52:30;;;;;;;3.03;1.80;;;;;;;;;;5011716;28;20202;-65
2022/08/04 08:55:36;;;;;;;2.33;1.90;;;;;;;;;;5060090;28;20197;-66
2022/08/04 08:58:16;;;;;;;1.85;1.75;;;;;;;;;;5074347;28;20225;-67
2022/08/04 09:00:59;;;;;;;2.55;1.80;;;;;;;;;;5064560;28;20300;-65
2022/08/04 09:03:38;;;;;;;1.67;1.58;;;;;;;;;;5065904;28;20233;-68
2022/08/04 09:06:24;;;;;;;3.95;1.90;;;;;;;;;;5052202;28;20201;-66
2022/08/04 09:09:04;;;;;;;1.90;1.80;;;;;;;;;;5053495;28;20792;-65
2022/08/04 09:11:39;;;;;;;4.28;1.98;;;;;;;;;;5066932;28;20845;-65
2022/08/04 09:14:16;;;;;;;2.00;1.70;;;;;;;;;;5063686;28;20201;-67
2022/08/04 09:16:53;;;;;;;1.65;1.55;;;;;;;;;;5042551;28;20259;-65
2022/08/04 09:19:44;;;;;;;2.03;1.92;;;;;;;;;;5052763;28;20200;-65
2022/08/04 09:22:24;;;;;;;2.72;1.63;;;;;;;;;;5035821;28;20220;-65
2022/08/04 09:24:54;;;;;;;4.30;1.88;;;;;;;;;;5061607;28;20201;-66
2022/08/04 09:27:45;;;;;;;2.00;1.90;;;;;;;;;;5053302;28;20257;-67
2022/08/04 09:30:14;;;;;;;2.35;1.60;;;;;;;;;;5041241;28;20222;-64
2022/08/04 09:32:47;;;;;;;2.17;1.70;;;;;;;;;;5060737;28;20621;-65
2022/08/04 09:35:33;;;;;;;2.65;1.65;;;;;;;;;;5066375;28;20662;-67
2022/08/04 09:38:00;;;;;;;2.85;1.80;;;;;;;;;;5066457;28;20230;-66
2022/08/04 09:40:54;;;;;;;1.80;1.50;;;;;;;;;;5052268;28;20213;-65
2022/08/04 09:43:46;;;;;;;1.60;1.50;;;;;;;;;;5040073;28;20213;-65
2022/08/04 09:46:44;;;;;;;1.67;1.58;;;;;;;;;;5062579;28;20209;-65
2022/08/04 09:49:22;;;;;;;3.25;1.67;;;;;;;;;;5063148;28;20228;-67
2022/08/04 09:51:53;;;;;;;1.90;1.73;;;;;;;;;;5057156;28;20221;-65
2022/08/04 09:54:39;;;;;;;2.17;1.75;;;;;;;;;;5064909;28;20295;-65
2022/08/04 09:57:06;;;;;;;2.00;1.90;;;;;;;;;;5058724;28;20289;-64
2022/08/04 09:59:34;;;;;;;2.35;1.60;;;;;;;;;;5074943;28;20565;-66
2022/08/04 10:02:06;;;;;;;1.92;1.65;;;;;;;;;;5058397;28;20559;-64
2022/08/04 10:04:34;;;;;;;1.52;1.42;;;;;;;;;;5061793;28;20263;-63
2022/08/04 10:07:08;;;;;;;1.88;1.67;;;;;;;;;;5069686;28;20197;-66
2022/08/04 10:09:44;;;;;;;2.08;1.70;;;;;;;;;;5064888;28;20217;-64
2022/08/04 10:12:21;;;;;;;1.70;1.60;;;;;;;;;;5065040;28;20262;-67
2022/08/04 10:14:56;;;;;;;3.22;1.70;;;;;;;;;;5063867;28;20970;-68
2022/08/04 10:17:34;;;;;;;2.83;1.80;;;;;;;;;;5060821;28;20247;-64
2022/08/04 10:20:11;;;;;;;3.10;1.50;;;;;;;;;;5063142;28;20221;-64
2022/08/04 10:22:42;;;;;;;1.73;1.48;;;;;;;;;;5058849;28;20208;-65
2022/08/04 10:25:29;;;;;;;2.38;1.80;;;;;;;;;;5058544;28;20283;-65
2022/08/04 10:28:19;;;;;;;1.88;1.75;;;;;;;;;;5058747;28;20272;-67
2022/08/04 10:30:49;;;;;;;1.80;1.70;;;;;;;;;;5063754;28;20846;-64
2022/08/04 10:33:25;;;;;;;2.22;1.83;;;;;;;;;;5062529;28;20424;-64
2022/08/04 10:36:07;;;;;;;1.70;1.60;;;;;;;;;;5056666;28;20201;-64
2022/08/04 10:38:42;;;;;;;1.77;1.67;;;;;;;;;;5045501;28;20230;-65
2022/08/04 10:41:12;;;;;;;1.80;1.70;;;;;;;;;;5073670;28;20215;-64
2022/08/04 10:43:52;;;;;;;2.00;1.73;;;;;;;;;;5063139;28;20228;-68
2022/08/04 10:46:22;;;;;;;2.92;1.88;;;;;;;;;;5055488;28;20625;-66
2022/08/04 10:49:01;;;;;;;1.58;1.58;;;;;;;;;;5061101;28;20224;-66
2022/08/04 10:51:28;;;;;;;1.92;1.75;;;;;;;;;;5062343;28;20220;-66
2022/08/04 10:53:58;;;;;;;2.40;1.92;;;;;;;;;;5056534;28;20209;-65
2022/08/04 10:56:31;;;;;;;2.55;1.90;;;;;;;;;;5044091;28;20213;-65
2022/08/04 10:59:21;;;;;;;2.35;1.75;;;;;;;;;;5057714;28;20684;-67
2022/08/04 11:01:50;;;;;;;2.78;1.90;;;;;;;;;;5049287;28;20201;-66
2022/08/04 11:04:49;;;;;;;3.35;2.10;;;;;;;;;;5063131;28;20206;-67
2022/08/04 11:07:20;;;;;;;2.85;2.00;;;;;;;;;;5059272;28;20811;-66
2022/08/04 11:09:48;;;;;;;2.05;1.90;;;;;;;;;;5064487;28;20205;-64
2022/08/04 11:12:21;;;;;;;2.72;2.10;;;;;;;;;;5046365;28;20228;-66
2022/08/04 11:15:03;;;;;;;2.20;1.77;;;;;;;;;;5062288;28;20201;-65
2022/08/04 11:17:32;;;;;;;2.05;1.85;;;;;;;;;;5061573;28;20339;-65
2022/08/04 11:20:09;;;;;;;2.35;2.00;;;;;;;;;;5047894;28;20212;-67
2022/08/04 11:22:56;;;;;;;2.00;1.90;;;;;;;;;;5051246;28;20256;-64
2022/08/04 11:25:36;;;;;;;2.83;1.90;;;;;;;;;;5080011;28;20200;-68
2022/08/04 11:28:22;;;;;;;2.65;2.10;;;;;;;;;;5054626;28;20842;-64
2022/08/04 11:30:56;;;;;;;4.50;2.40;;;;;;;;;;5048773;28;20224;-66
2022/08/04 11:33:27;;;;;;;2.28;2.08;;;;;;;;;;5056179;28;20207;-66
2022/08/04 11:36:17;;;;;;;3.17;1.75;;;;;;;;;;5056554;28;20235;-64
2022/08/04 11:38:49;;;;;;;4.40;1.90;;;;;;;;;;5046144;28;20698;-64
2022/08/04 11:41:20;;;;;;;3.15;2.00;;;;;;;;;;5054951;28;20274;-63
2022/08/04 11:43:50;;;;;;;4.88;2.13;;;;;;;;;;5047781;28;20201;-67
2022/08/04 11:46:41;;;;;;;2.75;2.05;;;;;;;;;;5074266;28;20217;-66
2022/08/04 11:49:28;;;;;;;1.95;1.85;;;;;;;;;;5061739;28;20239;-67
2022/08/04 11:51:59;;;;;;;2.63;2.13;;;;;;;;;;5050088;28;20225;-67
2022/08/04 11:54:27;;;;;;;2.30;2.10;;;;;;;;;;5068054;28;20200;-64
2022/08/04 11:56:55;;;;;;;2.63;2.22;;;;;;;;;;5057943;28;20204;-66
2022/08/04 11:59:23;;;;;;;4.07;2.10;;;;;;;;;;5044825;28;20255;-64
2022/08/04 12:02:10;;;;;;;2.97;2.05;;;;;;;;;;5058590;28;20213;-65
2022/08/04 12:04:46;;;;;;;2.88;2.00;;;;;;;;;;5060063;28;20212;-64
2022/08/04 12:07:17;;;;;;;2.20;1.80;;;;;;;;;;5043348;28;21850;-67
2022/08/04 12:10:23;;;;;;;3.50;2.10;;;;;;;;;;5060746;28;20263;-66
2022/08/04 12:13:20;;;;;;;2.50;1.85;;;;;;;;;;5059576;28;20675;-67
2022/08/04 12:16:14;;;;;;;2.45;1.95;;;;;;;;;;5057756;28;20613;-69
2022/08/04 12:18:41;;;;;;;2.58;1.95;;;;;;;;;;5063535;28;20220;-63
2022/08/04 12:21:18;;;;;;;4.30;1.98;;;;;;;;;;5047742;28;20228;-63
2022/08/04 12:23:49;;;;;;;2.00;1.80;;;;;;;;;;5059099;28;20212;-65
2022/08/04 12:26:27;;;;;;;2.40;2.03;;;;;;;;;;5062973;28;20704;-65
2022/08/04 12:28:59;;;;;;;2.42;2.13;;;;;;;;;;5054774;28;20237;-66
2022/08/04 12:31:41;;;;;;;2.67;2.10;;;;;;;;;;5048599;28;20229;-66
2022/08/04 12:34:12;;;;;;;3.13;2.38;;;;;;;;;;5044812;28;20294;-64
2022/08/04 12:36:44;;;;;;;3.72;1.95;;;;;;;;;;5047362;28;20334;-66
2022/08/04 12:39:16;;;;;;;3.22;2.28;;;;;;;;;;5065298;28;20733;-67
2022/08/04 12:42:04;;;;;;;4.97;2.33;;;;;;;;;;5060259;28;20197;-64
2022/08/04 12:44:36;;;;;;;2.33;2.22;;;;;;;;;;5024179;28;20283;-67
2022/08/04 12:47:10;;;;;;;3.30;2.40;;;;;;;;;;5034584;28;20269;-67
2022/08/04 12:49:57;;;;;;;2.60;2.35;;;;;;;;;;5060205;28;20206;-67
2022/08/04 12:52:28;;;;;;;2.30;2.10;;;;;;;;;;5066448;28;20244;-67
2022/08/04 12:55:17;;;;;;;4.85;2.38;;;;;;;;;;5064095;28;20212;-69
2022/08/04 12:57:44;;;;;;;3.65;2.03;;;;;;;;;;5062633;28;20286;-65
2022/08/04 13:00:22;;;;;;;2.40;2.20;;;;;;;;;;5035891;28;20675;-69
2022/08/04 13:02:59;;;;;;;3.83;2.28;;;;;;;;;;5066401;28;21619;-70
2022/08/04 13:05:28;;;;;;;2.15;2.05;;;;;;;;;;5050503;28;20202;-68
2022/08/04 13:07:56;;;;;;;2.25;2.05;;;;;;;;;;5057572;28;20225;-66
2022/08/04 13:10:24;;;;;;;2.40;2.20;;;;;;;;;;5050443;28;20258;-64
2022/08/04 13:12:58;;;;;;;5.13;2.30;;;;;;;;;;5048311;28;20214;-64
2022/08/04 13:15:26;;;;;;;2.55;2.35;;;;;;;;;;5061806;28;20206;-66
2022/08/04 13:17:55;;;;;;;2.30;2.10;;;;;;;;;;5063201;28;20225;-70
2022/08/04 13:20:30;;;;;;;2.80;2.25;;;;;;;;;;5059555;28;20701;-64
2022/08/04 13:23:05;;;;;;;5.90;4.80;;;;;;;;;;5069154;28;20198;-67
2022/08/04 13:25:39;;;;;;;5.28;3.72;;;;;;;;;;5066522;28;20200;-64
2022/08/04 13:28:27;;;;;;;5.15;4.05;;;;;;;;;;5061293;28;20283;-66
2022/08/04 13:30:56;;;;;;;2.58;2.38;;;;;;;;;;5044454;28;20693;-65
2022/08/04 13:33:35;;;;;;;2.40;2.20;;;;;;;;;;5059992;28;20220;-64
2022/08/04 13:36:03;;;;;;;3.35;2.20;;;;;;;;;;5067072;28;20216;-65
2022/08/04 13:38:32;;;;;;;3.25;2.35;;;;;;;;;;5064336;28;20244;-65
2022/08/04 13:41:01;;;;;;;2.40;2.20;;;;;;;;;;5046408;28;20202;-65
2022/08/04 13:43:31;;;;;;;2.55;2.03;;;;;;;;;;5062058;28;20205;-68
2022/08/04 13:46:20;;;;;;;2.35;2.22;;;;;;;;;;5053795;28;20209;-67
2022/08/04 13:48:58;;;;;;;3.65;2.30;;;;;;;;;;5044230;28;20228;-65
2022/08/04 13:51:50;;;;;;;2.72;2.03;;;;;;;;;;5069805;28;20289;-63
2022/08/04 13:54:24;;;;;;;2.22;2.13;;;;;;;;;;5050634;28;20196;-64
2022/08/04 13:56:54;;;;;;;2.20;2.10;;;;;;;;;;5050999;28;20291;-66
2022/08/04 13:59:24;;;;;;;2.00;1.90;;;;;;;;;;5060974;28;20205;-65
2022/08/04 14:02:04;;;;;;;3.13;2.70;;;;;;;;;;5050209;28;20569;-65
2022/08/04 14:04:34;;;;;;;2.47;2.30;;;;;;;;;;5054879;28;20653;-64
2022/08/04 14:07:02;;;;;;;4.57;2.05;;;;;;;;;;5058334;28;20198;-65
2022/08/04 14:09:31;;;;;;;2.67;2.42;;;;;;;;;;5057501;28;20307;-65
2022/08/04 14:12:09;;;;;;;3.50;2.22;;;;;;;;;;5059148;28;20224;-65
2022/08/04 14:14:57;;;;;;;2.22;2.03;;;;;;;;;;5061683;28;20205;-66
2022/08/04 14:17:25;;;;;;;3.55;2.10;;;;;;;;;;5057657;28;20256;-65
2022/08/04 14:20:00;;;;;;;2.72;2.17;;;;;;;;;;5058314;28;20220;-65
2022/08/04 14:22:28;;;;;;;3.25;2.10;;;;;;;;;;5061704;28;20556;-65
2022/08/04 14:25:03;;;;;;;2.22;2.13;;;;;;;;;;5046134;28;20209;-65
2022/08/04 14:27:40;;;;;;;4.13;2.40;;;;;;;;;;5055276;28;20234;-65
2022/08/04 14:30:31;;;;;;;4.50;2.40;;;;;;;;;;5058978;28;20208;-64
2022/08/04 14:33:07;;;;;;;2.30;2.10;;;;;;;;;;5043276;28;20243;-65
2022/08/04 14:35:58;;;;;;;4.03;2.45;;;;;;;;;;5061834;28;20201;-65
2022/08/04 14:38:45;;;;;;;3.25;2.10;;;;;;;;;;5044619;28;20262;-65
2022/08/04 14:41:13;;;;;;;2.40;2.20;;;;;;;;;;5060670;28;20196;-64
2022/08/04 14:43:45;;;;;;;2.80;2.30;;;;;;;;;;5040409;28;20213;-64
2022/08/04 14:46:12;;;;;;;2.95;2.25;;;;;;;;;;5056183;28;20219;-65
2022/08/04 14:48:58;;;;;;;2.08;1.90;;;;;;;;;;5064509;28;20618;-65
2022/08/04 14:51:27;;;;;;;3.90;2.33;;;;;;;;;;5062530;28;20835;-65
2022/08/04 14:54:03;;;;;;;2.50;2.30;;;;;;;;;;5061913;28;20232;-65
2022/08/04 14:56:36;;;;;;;2.92;2.25;;;;;;;;;;5041051;28;20245;-65
2022/08/04 14:59:16;;;;;;;4.35;2.25;;;;;;;;;;5062403;28;20234;-65
2022/08/04 15:01:45;;;;;;;2.75;2.35;;;;;;;;;;5055214;28;20212;-65
2022/08/04 15:04:27;;;;;;;1.98;1.88;;;;;;;;;;5057983;28;20259;-67
2022/08/04 15:06:54;;;;;;;2.30;2.10;;;;;;;;;;5053233;28;20197;-65
2022/08/04 15:09:21;;;;;;;4.47;2.40;;;;;;;;;;5047486;28;20202;-65
2022/08/04 15:11:49;;;;;;;2.40;2.20;;;;;;;;;;5051274;28;20238;-65
2022/08/04 15:14:16;;;;;;;3.78;2.55;;;;;;;;;;5062620;28;20742;-67
2022/08/04 15:17:05;;;;;;;3.88;2.20;;;;;;;;;;5033594;28;20200;-64
2022/08/04 15:19:38;;;;;;;2.10;2.00;;;;;;;;;;5043907;28;20193;-65
2022/08/04 15:22:06;;;;;;;2.92;2.10;;;;;;;;;;5044555;28;20236;-66
2022/08/04 15:24:44;;;;;;;2.83;2.10;;;;;;;;;;5056655;28;20233;-66
2022/08/04 15:27:23;;;;;;;2.20;2.10;;;;;;;;;;5055432;28;20229;-66
2022/08/04 15:29:51;;;;;;;4.90;1.90;;;;;;;;;;5053877;28;20201;-65
2022/08/04 15:32:32;;;;;;;2.97;1.92;;;;;;;;;;5057284;28;20228;-66
2022/08/04 15:35:07;;;;;;;2.42;2.30;;;;;;;;;;5045223;28;20251;-66
2022/08/04 15:37:47;;;;;;;2.13;2.03;;;;;;;;;;5067520;28;20228;-66
2022/08/04 15:40:18;;;;;;;2.92;1.73;;;;;;;;;;5052162;28;20205;-65